sensor_id;sensor_type;location;lat;lon;timestamp;P1;durP1;ratioP1;P2;durP2;ratioP2
65658;SDS011;60181;53.258;6.932;2023-12-04T00:00:17;33.70;;;14.10;;
65658;SDS011;60181;53.258;6.932;2023-12-04T00:04:28;33.70;;;14.10;;
65658;SDS011;60181;53.258;6.932;2023-12-04T00:08:40;33.70;;;14.10;;
65658;SDS011;60181;53.258;6.932;2023-12-04T00:12:52;33.70;;;14.70;;
65658;SDS011;60181;53.258;6.932;2023-12-04T00:17:04;33.70;;;14.70;;
65658;SDS011;60181;53.258;6.932;2023-12-04T00:21:16;31.70;;;14.00;;
65658;SDS011;60181;53.258;6.932;2023-12-04T00:25:28;31.70;;;14.00;;
65658;SDS011;60181;53.258;6.932;2023-12-04T00:29:40;31.80;;;13.70;;
65658;SDS011;60181;53.258;6.932;2023-12-04T00:33:52;31.80;;;13.70;;
65658;SDS011;60181;53.258;6.932;2023-12-04T00:38:04;31.80;;;13.70;;
65658;SDS011;60181;53.258;6.932;2023-12-04T00:42:16;33.80;;;13.80;;
65658;SDS011;60181;53.258;6.932;2023-12-04T00:46:28;33.80;;;13.80;;
65658;SDS011;60181;53.258;6.932;2023-12-04T00:50:40;33.20;;;13.70;;
65658;SDS011;60181;53.258;6.932;2023-12-04T00:54:52;33.20;;;13.70;;
65658;SDS011;60181;53.258;6.932;2023-12-04T00:59:05;33.20;;;13.70;;
65658;SDS011;60181;53.258;6.932;2023-12-04T01:03:16;30.00;;;13.50;;
65658;SDS011;60181;53.258;6.932;2023-12-04T01:07:28;30.00;;;13.50;;
65658;SDS011;60181;53.258;6.932;2023-12-04T01:11:40;31.00;;;13.30;;
65658;SDS011;60181;53.258;6.932;2023-12-04T01:15:52;31.00;;;13.30;;
65658;SDS011;60181;53.258;6.932;2023-12-04T01:20:07;32.10;;;13.50;;
65658;SDS011;60181;53.258;6.932;2023-12-04T01:24:16;32.10;;;13.50;;
65658;SDS011;60181;53.258;6.932;2023-12-04T01:28:28;32.10;;;13.50;;
65658;SDS011;60181;53.258;6.932;2023-12-04T01:32:40;29.20;;;12.90;;
65658;SDS011;60181;53.258;6.932;2023-12-04T01:36:52;29.20;;;12.90;;
65658;SDS011;60181;53.258;6.932;2023-12-04T01:41:05;31.70;;;13.70;;
65658;SDS011;60181;53.258;6.932;2023-12-04T01:45:16;31.70;;;13.70;;
65658;SDS011;60181;53.258;6.932;2023-12-04T01:49:28;31.00;;;13.60;;
65658;SDS011;60181;53.258;6.932;2023-12-04T01:53:40;31.00;;;13.60;;
65658;SDS011;60181;53.258;6.932;2023-12-04T01:57:52;31.00;;;13.60;;
65658;SDS011;60181;53.258;6.932;2023-12-04T02:02:04;29.10;;;12.90;;
65658;SDS011;60181;53.258;6.932;2023-12-04T02:06:17;29.10;;;12.90;;
65658;SDS011;60181;53.258;6.932;2023-12-04T02:10:28;28.20;;;13.40;;
65658;SDS011;60181;53.258;6.932;2023-12-04T02:14:40;28.20;;;13.40;;
65658;SDS011;60181;53.258;6.932;2023-12-04T02:18:52;28.20;;;13.40;;
65658;SDS011;60181;53.258;6.932;2023-12-04T02:23:04;30.50;;;13.40;;
65658;SDS011;60181;53.258;6.932;2023-12-04T02:27:20;30.50;;;13.40;;
65658;SDS011;60181;53.258;6.932;2023-12-04T02:31:28;32.90;;;13.00;;
65658;SDS011;60181;53.258;6.932;2023-12-04T02:35:40;32.90;;;13.00;;
65658;SDS011;60181;53.258;6.932;2023-12-04T02:39:52;29.10;;;12.80;;
65658;SDS011;60181;53.258;6.932;2023-12-04T02:44:04;29.10;;;12.80;;
65658;SDS011;60181;53.258;6.932;2023-12-04T02:48:16;29.10;;;12.80;;
65658;SDS011;60181;53.258;6.932;2023-12-04T02:52:28;31.80;;;13.60;;
65658;SDS011;60181;53.258;6.932;2023-12-04T02:56:40;31.80;;;13.60;;
65658;SDS011;60181;53.258;6.932;2023-12-04T03:00:52;30.70;;;13.20;;
65658;SDS011;60181;53.258;6.932;2023-12-04T03:05:04;30.70;;;13.20;;
65658;SDS011;60181;53.258;6.932;2023-12-04T03:09:16;30.70;;;13.20;;
65658;SDS011;60181;53.258;6.932;2023-12-04T03:13:28;28.10;;;12.80;;
65658;SDS011;60181;53.258;6.932;2023-12-04T03:17:40;28.10;;;12.80;;
65658;SDS011;60181;53.258;6.932;2023-12-04T03:21:52;32.40;;;12.90;;
65658;SDS011;60181;53.258;6.932;2023-12-04T03:26:04;32.40;;;12.90;;
65658;SDS011;60181;53.258;6.932;2023-12-04T03:30:16;27.80;;;12.50;;
65658;SDS011;60181;53.258;6.932;2023-12-04T03:34:28;27.80;;;12.50;;
65658;SDS011;60181;53.258;6.932;2023-12-04T03:38:40;27.80;;;12.50;;
65658;SDS011;60181;53.258;6.932;2023-12-04T03:42:52;28.10;;;12.30;;
65658;SDS011;60181;53.258;6.932;2023-12-04T03:47:04;28.10;;;12.30;;
65658;SDS011;60181;53.258;6.932;2023-12-04T03:51:16;32.40;;;12.80;;
65658;SDS011;60181;53.258;6.932;2023-12-04T03:55:28;32.40;;;12.80;;
65658;SDS011;60181;53.258;6.932;2023-12-04T03:59:40;28.30;;;12.90;;
65658;SDS011;60181;53.258;6.932;2023-12-04T04:03:52;28.30;;;12.90;;
65658;SDS011;60181;53.258;6.932;2023-12-04T04:08:04;28.30;;;12.90;;
65658;SDS011;60181;53.258;6.932;2023-12-04T04:12:16;33.60;;;13.40;;
65658;SDS011;60181;53.258;6.932;2023-12-04T04:16:28;33.60;;;13.40;;
65658;SDS011;60181;53.258;6.932;2023-12-04T04:20:40;30.00;;;12.70;;
65658;SDS011;60181;53.258;6.932;2023-12-04T04:24:52;30.00;;;12.70;;
65658;SDS011;60181;53.258;6.932;2023-12-04T04:29:04;30.00;;;12.70;;
65658;SDS011;60181;53.258;6.932;2023-12-04T04:33:16;34.10;;;13.00;;
65658;SDS011;60181;53.258;6.932;2023-12-04T04:37:28;34.10;;;13.00;;
65658;SDS011;60181;53.258;6.932;2023-12-04T04:41:40;32.70;;;10.20;;
65658;SDS011;60181;53.258;6.932;2023-12-04T04:45:52;32.70;;;10.20;;
65658;SDS011;60181;53.258;6.932;2023-12-04T04:50:04;22.80;;;9.00;;
65658;SDS011;60181;53.258;6.932;2023-12-04T04:54:16;22.80;;;9.00;;
65658;SDS011;60181;53.258;6.932;2023-12-04T04:58:28;22.80;;;9.00;;
65658;SDS011;60181;53.258;6.932;2023-12-04T05:02:40;21.90;;;8.50;;
65658;SDS011;60181;53.258;6.932;2023-12-04T05:06:52;21.90;;;8.50;;
65658;SDS011;60181;53.258;6.932;2023-12-04T05:11:04;21.40;;;8.20;;
65658;SDS011;60181;53.258;6.932;2023-12-04T05:15:16;21.40;;;8.20;;
65658;SDS011;60181;53.258;6.932;2023-12-04T05:19:28;19.80;;;7.80;;
65658;SDS011;60181;53.258;6.932;2023-12-04T05:23:40;19.80;;;7.80;;
65658;SDS011;60181;53.258;6.932;2023-12-04T05:27:52;19.80;;;7.80;;
65658;SDS011;60181;53.258;6.932;2023-12-04T05:32:04;20.90;;;7.60;;
65658;SDS011;60181;53.258;6.932;2023-12-04T05:36:16;20.90;;;7.60;;
65658;SDS011;60181;53.258;6.932;2023-12-04T05:40:28;15.70;;;7.10;;
65658;SDS011;60181;53.258;6.932;2023-12-04T05:44:40;15.70;;;7.10;;
65658;SDS011;60181;53.258;6.932;2023-12-04T05:48:52;15.70;;;7.10;;
65658;SDS011;60181;53.258;6.932;2023-12-04T05:53:05;15.70;;;6.90;;
65658;SDS011;60181;53.258;6.932;2023-12-04T05:57:16;15.70;;;6.90;;
65658;SDS011;60181;53.258;6.932;2023-12-04T06:01:28;16.60;;;7.30;;
65658;SDS011;60181;53.258;6.932;2023-12-04T06:05:40;16.60;;;7.30;;
65658;SDS011;60181;53.258;6.932;2023-12-04T06:09:52;16.70;;;6.10;;
65658;SDS011;60181;53.258;6.932;2023-12-04T06:14:04;16.70;;;6.10;;
65658;SDS011;60181;53.258;6.932;2023-12-04T06:18:16;16.70;;;6.10;;
65658;SDS011;60181;53.258;6.932;2023-12-04T06:22:28;18.10;;;6.30;;
65658;SDS011;60181;53.258;6.932;2023-12-04T06:26:41;18.10;;;6.30;;
65658;SDS011;60181;53.258;6.932;2023-12-04T06:30:52;17.00;;;5.90;;
65658;SDS011;60181;53.258;6.932;2023-12-04T06:35:04;17.00;;;5.90;;
65658;SDS011;60181;53.258;6.932;2023-12-04T06:39:16;17.00;;;5.90;;
65658;SDS011;60181;53.258;6.932;2023-12-04T06:43:28;10.90;;;5.50;;
65658;SDS011;60181;53.258;6.932;2023-12-04T06:47:40;10.90;;;5.50;;
65658;SDS011;60181;53.258;6.932;2023-12-04T06:51:52;13.30;;;5.30;;
65658;SDS011;60181;53.258;6.932;2023-12-04T06:56:04;13.30;;;5.30;;
65658;SDS011;60181;53.258;6.932;2023-12-04T07:00:16;10.90;;;4.80;;
65658;SDS011;60181;53.258;6.932;2023-12-04T07:04:28;10.90;;;4.80;;
65658;SDS011;60181;53.258;6.932;2023-12-04T07:08:40;10.90;;;4.80;;
65658;SDS011;60181;53.258;6.932;2023-12-04T07:12:52;12.20;;;5.20;;
65658;SDS011;60181;53.258;6.932;2023-12-04T07:17:04;12.20;;;5.20;;
65658;SDS011;60181;53.258;6.932;2023-12-04T07:21:16;11.10;;;5.00;;
65658;SDS011;60181;53.258;6.932;2023-12-04T07:25:28;11.10;;;5.00;;
65658;SDS011;60181;53.258;6.932;2023-12-04T07:29:40;9.90;;;4.60;;
65658;SDS011;60181;53.258;6.932;2023-12-04T07:33:55;9.90;;;4.60;;
65658;SDS011;60181;53.258;6.932;2023-12-04T07:38:04;9.90;;;4.60;;
65658;SDS011;60181;53.258;6.932;2023-12-04T07:42:16;10.10;;;4.50;;
65658;SDS011;60181;53.258;6.932;2023-12-04T07:46:28;10.10;;;4.50;;
65658;SDS011;60181;53.258;6.932;2023-12-04T07:50:40;8.50;;;4.40;;
65658;SDS011;60181;53.258;6.932;2023-12-04T07:54:52;8.50;;;4.40;;
65658;SDS011;60181;53.258;6.932;2023-12-04T07:59:04;8.50;;;4.40;;
65658;SDS011;60181;53.258;6.932;2023-12-04T08:03:16;7.70;;;4.20;;
65658;SDS011;60181;53.258;6.932;2023-12-04T08:07:28;7.70;;;4.20;;
65658;SDS011;60181;53.258;6.932;2023-12-04T08:11:40;10.10;;;4.60;;
65658;SDS011;60181;53.258;6.932;2023-12-04T08:15:52;10.10;;;4.60;;
65658;SDS011;60181;53.258;6.932;2023-12-04T08:20:04;9.50;;;4.30;;
65658;SDS011;60181;53.258;6.932;2023-12-04T08:24:16;9.50;;;4.30;;
65658;SDS011;60181;53.258;6.932;2023-12-04T08:28:28;9.50;;;4.30;;
65658;SDS011;60181;53.258;6.932;2023-12-04T08:32:40;7.90;;;3.80;;
65658;SDS011;60181;53.258;6.932;2023-12-04T08:36:52;7.90;;;3.80;;
65658;SDS011;60181;53.258;6.932;2023-12-04T08:41:04;7.10;;;3.80;;
65658;SDS011;60181;53.258;6.932;2023-12-04T08:45:16;7.10;;;3.80;;
65658;SDS011;60181;53.258;6.932;2023-12-04T08:49:28;8.00;;;3.80;;
65658;SDS011;60181;53.258;6.932;2023-12-04T08:53:40;8.00;;;3.80;;
65658;SDS011;60181;53.258;6.932;2023-12-04T08:57:52;8.00;;;3.80;;
65658;SDS011;60181;53.258;6.932;2023-12-04T09:02:04;7.70;;;3.60;;
65658;SDS011;60181;53.258;6.932;2023-12-04T09:06:16;7.70;;;3.60;;
65658;SDS011;60181;53.258;6.932;2023-12-04T09:10:28;5.90;;;3.10;;
65658;SDS011;60181;53.258;6.932;2023-12-04T09:14:40;5.90;;;3.10;;
65658;SDS011;60181;53.258;6.932;2023-12-04T09:18:52;5.90;;;3.10;;
65658;SDS011;60181;53.258;6.932;2023-12-04T09:23:04;10.70;;;3.20;;
65658;SDS011;60181;53.258;6.932;2023-12-04T09:27:16;10.70;;;3.20;;
65658;SDS011;60181;53.258;6.932;2023-12-04T09:31:28;8.50;;;3.40;;
65658;SDS011;60181;53.258;6.932;2023-12-04T09:35:40;8.50;;;3.40;;
65658;SDS011;60181;53.258;6.932;2023-12-04T09:39:52;6.70;;;3.30;;
65658;SDS011;60181;53.258;6.932;2023-12-04T09:44:04;6.70;;;3.30;;
65658;SDS011;60181;53.258;6.932;2023-12-04T09:48:16;6.70;;;3.30;;
65658;SDS011;60181;53.258;6.932;2023-12-04T09:52:28;7.90;;;3.40;;
65658;SDS011;60181;53.258;6.932;2023-12-04T09:56:40;7.90;;;3.40;;
65658;SDS011;60181;53.258;6.932;2023-12-04T10:00:52;8.00;;;3.20;;
65658;SDS011;60181;53.258;6.932;2023-12-04T10:05:04;8.00;;;3.20;;
65658;SDS011;60181;53.258;6.932;2023-12-04T10:09:16;8.00;;;3.20;;
65658;SDS011;60181;53.258;6.932;2023-12-04T10:13:28;9.70;;;3.20;;
65658;SDS011;60181;53.258;6.932;2023-12-04T10:17:41;9.70;;;3.20;;
65658;SDS011;60181;53.258;6.932;2023-12-04T10:21:52;7.80;;;2.90;;
65658;SDS011;60181;53.258;6.932;2023-12-04T10:26:04;7.80;;;2.90;;
65658;SDS011;60181;53.258;6.932;2023-12-04T10:30:28;6.80;;;3.20;;
65658;SDS011;60181;53.258;6.932;2023-12-04T10:34:28;6.80;;;3.20;;
65658;SDS011;60181;53.258;6.932;2023-12-04T10:38:40;6.80;;;3.20;;
65658;SDS011;60181;53.258;6.932;2023-12-04T10:42:59;6.70;;;3.00;;
65658;SDS011;60181;53.258;6.932;2023-12-04T10:47:04;6.70;;;3.00;;
65658;SDS011;60181;53.258;6.932;2023-12-04T10:51:17;7.60;;;3.00;;
65658;SDS011;60181;53.258;6.932;2023-12-04T10:55:28;7.60;;;3.00;;
65658;SDS011;60181;53.258;6.932;2023-12-04T10:59:40;7.10;;;3.50;;
65658;SDS011;60181;53.258;6.932;2023-12-04T11:03:52;7.10;;;3.50;;
65658;SDS011;60181;53.258;6.932;2023-12-04T11:08:04;7.10;;;3.50;;
65658;SDS011;60181;53.258;6.932;2023-12-04T11:12:17;7.90;;;3.40;;
65658;SDS011;60181;53.258;6.932;2023-12-04T11:16:31;7.90;;;3.40;;
65658;SDS011;60181;53.258;6.932;2023-12-04T11:20:44;9.30;;;3.50;;
65658;SDS011;60181;53.258;6.932;2023-12-04T11:24:52;9.30;;;3.50;;
65658;SDS011;60181;53.258;6.932;2023-12-04T11:29:03;9.30;;;3.50;;
65658;SDS011;60181;53.258;6.932;2023-12-04T11:33:15;7.00;;;3.20;;
65658;SDS011;60181;53.258;6.932;2023-12-04T11:37:27;7.00;;;3.20;;
65658;SDS011;60181;53.258;6.932;2023-12-04T11:41:42;5.90;;;3.20;;
65658;SDS011;60181;53.258;6.932;2023-12-04T11:45:52;5.90;;;3.20;;
65658;SDS011;60181;53.258;6.932;2023-12-04T11:50:04;6.90;;;3.20;;
65658;SDS011;60181;53.258;6.932;2023-12-04T11:54:18;6.90;;;3.20;;
65658;SDS011;60181;53.258;6.932;2023-12-04T11:58:27;6.90;;;3.20;;
65658;SDS011;60181;53.258;6.932;2023-12-04T12:02:40;6.20;;;3.10;;
65658;SDS011;60181;53.258;6.932;2023-12-04T12:06:51;6.20;;;3.10;;
65658;SDS011;60181;53.258;6.932;2023-12-04T12:11:04;7.10;;;3.10;;
65658;SDS011;60181;53.258;6.932;2023-12-04T12:15:15;7.10;;;3.10;;
65658;SDS011;60181;53.258;6.932;2023-12-04T12:19:27;7.10;;;3.10;;
65658;SDS011;60181;53.258;6.932;2023-12-04T12:23:39;6.60;;;3.30;;
65658;SDS011;60181;53.258;6.932;2023-12-04T12:27:51;6.60;;;3.30;;
65658;SDS011;60181;53.258;6.932;2023-12-04T12:32:04;5.70;;;2.90;;
65658;SDS011;60181;53.258;6.932;2023-12-04T12:36:15;5.70;;;2.90;;
65658;SDS011;60181;53.258;6.932;2023-12-04T12:40:28;7.00;;;3.00;;
65658;SDS011;60181;53.258;6.932;2023-12-04T12:44:40;7.00;;;3.00;;
65658;SDS011;60181;53.258;6.932;2023-12-04T12:48:51;7.00;;;3.00;;
65658;SDS011;60181;53.258;6.932;2023-12-04T12:53:04;10.60;;;3.20;;
65658;SDS011;60181;53.258;6.932;2023-12-04T12:57:15;10.60;;;3.20;;
65658;SDS011;60181;53.258;6.932;2023-12-04T13:01:33;5.40;;;2.80;;
65658;SDS011;60181;53.258;6.932;2023-12-04T13:05:39;5.40;;;2.80;;
65658;SDS011;60181;53.258;6.932;2023-12-04T13:09:51;6.30;;;2.80;;
65658;SDS011;60181;53.258;6.932;2023-12-04T13:14:03;6.30;;;2.80;;
65658;SDS011;60181;53.258;6.932;2023-12-04T13:18:15;6.30;;;2.80;;
65658;SDS011;60181;53.258;6.932;2023-12-04T13:22:27;6.20;;;3.10;;
65658;SDS011;60181;53.258;6.932;2023-12-04T13:26:39;6.20;;;3.10;;
65658;SDS011;60181;53.258;6.932;2023-12-04T13:30:51;7.30;;;3.10;;
65658;SDS011;60181;53.258;6.932;2023-12-04T13:35:04;7.30;;;3.10;;
65658;SDS011;60181;53.258;6.932;2023-12-04T13:39:15;7.30;;;3.10;;
65658;SDS011;60181;53.258;6.932;2023-12-04T13:43:27;6.40;;;2.90;;
65658;SDS011;60181;53.258;6.932;2023-12-04T13:47:39;6.40;;;2.90;;
65658;SDS011;60181;53.258;6.932;2023-12-04T13:51:51;6.60;;;2.80;;
65658;SDS011;60181;53.258;6.932;2023-12-04T13:56:04;6.60;;;2.80;;
65658;SDS011;60181;53.258;6.932;2023-12-04T14:00:16;4.70;;;2.70;;
65658;SDS011;60181;53.258;6.932;2023-12-04T14:04:27;4.70;;;2.70;;
65658;SDS011;60181;53.258;6.932;2023-12-04T14:08:39;4.70;;;2.70;;
65658;SDS011;60181;53.258;6.932;2023-12-04T14:12:51;6.80;;;2.80;;
65658;SDS011;60181;53.258;6.932;2023-12-04T14:17:03;6.80;;;2.80;;
65658;SDS011;60181;53.258;6.932;2023-12-04T14:21:15;5.20;;;2.90;;
65658;SDS011;60181;53.258;6.932;2023-12-04T14:25:27;5.20;;;2.90;;
65658;SDS011;60181;53.258;6.932;2023-12-04T14:29:39;7.40;;;3.20;;
65658;SDS011;60181;53.258;6.932;2023-12-04T14:33:51;7.40;;;3.20;;
65658;SDS011;60181;53.258;6.932;2023-12-04T14:38:03;7.40;;;3.20;;
65658;SDS011;60181;53.258;6.932;2023-12-04T14:42:15;6.10;;;3.10;;
65658;SDS011;60181;53.258;6.932;2023-12-04T14:46:27;6.10;;;3.10;;
65658;SDS011;60181;53.258;6.932;2023-12-04T14:50:39;6.00;;;3.10;;
65658;SDS011;60181;53.258;6.932;2023-12-04T14:54:51;6.00;;;3.10;;
65658;SDS011;60181;53.258;6.932;2023-12-04T14:59:03;6.00;;;3.10;;
65658;SDS011;60181;53.258;6.932;2023-12-04T15:03:15;5.20;;;2.90;;
65658;SDS011;60181;53.258;6.932;2023-12-04T15:07:27;5.20;;;2.90;;
65658;SDS011;60181;53.258;6.932;2023-12-04T15:11:39;7.50;;;3.30;;
65658;SDS011;60181;53.258;6.932;2023-12-04T15:15:51;7.50;;;3.30;;
65658;SDS011;60181;53.258;6.932;2023-12-04T15:20:04;5.90;;;3.10;;
65658;SDS011;60181;53.258;6.932;2023-12-04T15:24:15;5.90;;;3.10;;
65658;SDS011;60181;53.258;6.932;2023-12-04T15:28:27;5.90;;;3.10;;
65658;SDS011;60181;53.258;6.932;2023-12-04T15:32:39;6.70;;;3.50;;
65658;SDS011;60181;53.258;6.932;2023-12-04T15:36:51;6.70;;;3.50;;
65658;SDS011;60181;53.258;6.932;2023-12-04T15:41:04;8.80;;;4.10;;
65658;SDS011;60181;53.258;6.932;2023-12-04T15:45:15;8.80;;;4.10;;
65658;SDS011;60181;53.258;6.932;2023-12-04T15:49:27;8.80;;;4.10;;
65658;SDS011;60181;53.258;6.932;2023-12-04T15:53:39;11.40;;;5.70;;
65658;SDS011;60181;53.258;6.932;2023-12-04T15:57:52;11.40;;;5.70;;
65658;SDS011;60181;53.258;6.932;2023-12-04T16:02:03;12.40;;;6.00;;
65658;SDS011;60181;53.258;6.932;2023-12-04T16:06:15;12.40;;;6.00;;
65658;SDS011;60181;53.258;6.932;2023-12-04T16:10:27;13.50;;;6.80;;
65658;SDS011;60181;53.258;6.932;2023-12-04T16:14:39;13.50;;;6.80;;
65658;SDS011;60181;53.258;6.932;2023-12-04T16:18:51;13.50;;;6.80;;
65658;SDS011;60181;53.258;6.932;2023-12-04T16:23:03;14.30;;;7.20;;
65658;SDS011;60181;53.258;6.932;2023-12-04T16:27:15;14.30;;;7.20;;
65658;SDS011;60181;53.258;6.932;2023-12-04T16:31:27;13.60;;;7.20;;
65658;SDS011;60181;53.258;6.932;2023-12-04T16:35:39;13.60;;;7.20;;
65658;SDS011;60181;53.258;6.932;2023-12-04T16:39:51;14.80;;;7.60;;
65658;SDS011;60181;53.258;6.932;2023-12-04T16:44:03;14.80;;;7.60;;
65658;SDS011;60181;53.258;6.932;2023-12-04T16:48:15;14.80;;;7.60;;
65658;SDS011;60181;53.258;6.932;2023-12-04T16:52:27;16.30;;;8.00;;
65658;SDS011;60181;53.258;6.932;2023-12-04T16:56:39;16.30;;;8.00;;
65658;SDS011;60181;53.258;6.932;2023-12-04T17:00:51;18.00;;;8.10;;
65658;SDS011;60181;53.258;6.932;2023-12-04T17:05:03;18.00;;;8.10;;
65658;SDS011;60181;53.258;6.932;2023-12-04T17:09:15;18.00;;;8.10;;
65658;SDS011;60181;53.258;6.932;2023-12-04T17:13:27;17.80;;;8.70;;
65658;SDS011;60181;53.258;6.932;2023-12-04T17:17:40;17.80;;;8.70;;
65658;SDS011;60181;53.258;6.932;2023-12-04T17:21:51;17.70;;;9.00;;
65658;SDS011;60181;53.258;6.932;2023-12-04T17:26:03;17.70;;;9.00;;
65658;SDS011;60181;53.258;6.932;2023-12-04T17:30:15;16.50;;;8.30;;
65658;SDS011;60181;53.258;6.932;2023-12-04T17:34:27;16.50;;;8.30;;
65658;SDS011;60181;53.258;6.932;2023-12-04T17:38:39;16.50;;;8.30;;
65658;SDS011;60181;53.258;6.932;2023-12-04T17:42:51;17.10;;;8.50;;
65658;SDS011;60181;53.258;6.932;2023-12-04T17:47:03;17.10;;;8.50;;
65658;SDS011;60181;53.258;6.932;2023-12-04T17:51:15;17.80;;;9.00;;
65658;SDS011;60181;53.258;6.932;2023-12-04T17:55:27;17.80;;;9.00;;
65658;SDS011;60181;53.258;6.932;2023-12-04T17:59:39;18.30;;;8.70;;
65658;SDS011;60181;53.258;6.932;2023-12-04T18:03:51;18.30;;;8.70;;
65658;SDS011;60181;53.258;6.932;2023-12-04T18:08:03;18.30;;;8.70;;
65658;SDS011;60181;53.258;6.932;2023-12-04T18:12:15;17.40;;;8.80;;
65658;SDS011;60181;53.258;6.932;2023-12-04T18:16:27;17.40;;;8.80;;
65658;SDS011;60181;53.258;6.932;2023-12-04T18:20:39;17.00;;;8.60;;
65658;SDS011;60181;53.258;6.932;2023-12-04T18:24:51;17.00;;;8.60;;
65658;SDS011;60181;53.258;6.932;2023-12-04T18:29:03;17.00;;;8.60;;
65658;SDS011;60181;53.258;6.932;2023-12-04T18:33:15;16.10;;;8.30;;
65658;SDS011;60181;53.258;6.932;2023-12-04T18:37:27;16.10;;;8.30;;
65658;SDS011;60181;53.258;6.932;2023-12-04T18:41:39;15.90;;;8.30;;
65658;SDS011;60181;53.258;6.932;2023-12-04T18:45:51;15.90;;;8.30;;
65658;SDS011;60181;53.258;6.932;2023-12-04T18:50:03;16.90;;;8.30;;
65658;SDS011;60181;53.258;6.932;2023-12-04T18:54:15;16.90;;;8.30;;
65658;SDS011;60181;53.258;6.932;2023-12-04T18:58:27;16.90;;;8.30;;
65658;SDS011;60181;53.258;6.932;2023-12-04T19:02:39;18.30;;;8.20;;
65658;SDS011;60181;53.258;6.932;2023-12-04T19:06:51;18.30;;;8.20;;
65658;SDS011;60181;53.258;6.932;2023-12-04T19:11:03;15.20;;;8.00;;
65658;SDS011;60181;53.258;6.932;2023-12-04T19:15:15;15.20;;;8.00;;
65658;SDS011;60181;53.258;6.932;2023-12-04T19:19:27;15.20;;;8.00;;
65658;SDS011;60181;53.258;6.932;2023-12-04T19:23:39;13.80;;;7.60;;
65658;SDS011;60181;53.258;6.932;2023-12-04T19:27:51;13.80;;;7.60;;
65658;SDS011;60181;53.258;6.932;2023-12-04T19:32:03;15.00;;;7.30;;
65658;SDS011;60181;53.258;6.932;2023-12-04T19:36:16;15.00;;;7.30;;
65658;SDS011;60181;53.258;6.932;2023-12-04T19:40:27;13.20;;;7.00;;
65658;SDS011;60181;53.258;6.932;2023-12-04T19:44:42;13.20;;;7.00;;
65658;SDS011;60181;53.258;6.932;2023-12-04T19:48:51;13.20;;;7.00;;
65658;SDS011;60181;53.258;6.932;2023-12-04T19:53:03;15.10;;;7.00;;
65658;SDS011;60181;53.258;6.932;2023-12-04T19:57:15;15.10;;;7.00;;
65658;SDS011;60181;53.258;6.932;2023-12-04T20:01:27;13.70;;;7.30;;
65658;SDS011;60181;53.258;6.932;2023-12-04T20:05:39;13.70;;;7.30;;
65658;SDS011;60181;53.258;6.932;2023-12-04T20:09:51;13.20;;;7.10;;
65658;SDS011;60181;53.258;6.932;2023-12-04T20:14:03;13.20;;;7.10;;
65658;SDS011;60181;53.258;6.932;2023-12-04T20:18:15;13.20;;;7.10;;
65658;SDS011;60181;53.258;6.932;2023-12-04T20:22:27;13.60;;;7.00;;
65658;SDS011;60181;53.258;6.932;2023-12-04T20:26:39;13.60;;;7.00;;
65658;SDS011;60181;53.258;6.932;2023-12-04T20:30:51;12.20;;;6.80;;
65658;SDS011;60181;53.258;6.932;2023-12-04T20:35:03;12.20;;;6.80;;
65658;SDS011;60181;53.258;6.932;2023-12-04T20:39:15;12.20;;;6.80;;
65658;SDS011;60181;53.258;6.932;2023-12-04T20:43:27;12.00;;;6.40;;
65658;SDS011;60181;53.258;6.932;2023-12-04T20:47:39;12.00;;;6.40;;
65658;SDS011;60181;53.258;6.932;2023-12-04T20:51:51;13.10;;;6.60;;
65658;SDS011;60181;53.258;6.932;2023-12-04T20:56:03;13.10;;;6.60;;
65658;SDS011;60181;53.258;6.932;2023-12-04T21:00:15;12.50;;;6.20;;
65658;SDS011;60181;53.258;6.932;2023-12-04T21:04:27;12.50;;;6.20;;
65658;SDS011;60181;53.258;6.932;2023-12-04T21:08:39;12.50;;;6.20;;
65658;SDS011;60181;53.258;6.932;2023-12-04T21:12:51;10.90;;;6.00;;
65658;SDS011;60181;53.258;6.932;2023-12-04T21:17:03;10.90;;;6.00;;
65658;SDS011;60181;53.258;6.932;2023-12-04T21:21:15;12.80;;;6.10;;
65658;SDS011;60181;53.258;6.932;2023-12-04T21:25:27;12.80;;;6.10;;
65658;SDS011;60181;53.258;6.932;2023-12-04T21:29:39;10.60;;;5.60;;
65658;SDS011;60181;53.258;6.932;2023-12-04T21:33:51;10.60;;;5.60;;
65658;SDS011;60181;53.258;6.932;2023-12-04T21:38:03;10.60;;;5.60;;
65658;SDS011;60181;53.258;6.932;2023-12-04T21:42:15;12.20;;;5.50;;
65658;SDS011;60181;53.258;6.932;2023-12-04T21:46:27;12.20;;;5.50;;
65658;SDS011;60181;53.258;6.932;2023-12-04T21:50:39;17.90;;;7.10;;
65658;SDS011;60181;53.258;6.932;2023-12-04T21:54:51;17.90;;;7.10;;
65658;SDS011;60181;53.258;6.932;2023-12-04T21:59:03;17.90;;;7.10;;
65658;SDS011;60181;53.258;6.932;2023-12-04T22:03:15;17.10;;;8.10;;
65658;SDS011;60181;53.258;6.932;2023-12-04T22:07:27;17.10;;;8.10;;
65658;SDS011;60181;53.258;6.932;2023-12-04T22:11:39;17.90;;;9.00;;
65658;SDS011;60181;53.258;6.932;2023-12-04T22:15:51;17.90;;;9.00;;
65658;SDS011;60181;53.258;6.932;2023-12-04T22:20:03;16.70;;;8.50;;
65658;SDS011;60181;53.258;6.932;2023-12-04T22:24:15;16.70;;;8.50;;
65658;SDS011;60181;53.258;6.932;2023-12-04T22:28:27;16.70;;;8.50;;
65658;SDS011;60181;53.258;6.932;2023-12-04T22:32:39;18.70;;;8.50;;
65658;SDS011;60181;53.258;6.932;2023-12-04T22:36:51;18.70;;;8.50;;
65658;SDS011;60181;53.258;6.932;2023-12-04T22:41:03;17.00;;;8.20;;
65658;SDS011;60181;53.258;6.932;2023-12-04T22:45:15;17.00;;;8.20;;
65658;SDS011;60181;53.258;6.932;2023-12-04T22:49:27;17.00;;;8.20;;
65658;SDS011;60181;53.258;6.932;2023-12-04T22:53:39;18.30;;;8.50;;
65658;SDS011;60181;53.258;6.932;2023-12-04T22:57:51;18.30;;;8.50;;
65658;SDS011;60181;53.258;6.932;2023-12-04T23:02:03;18.70;;;8.40;;
65658;SDS011;60181;53.258;6.932;2023-12-04T23:06:15;18.70;;;8.40;;
65658;SDS011;60181;53.258;6.932;2023-12-04T23:10:27;18.30;;;8.40;;
65658;SDS011;60181;53.258;6.932;2023-12-04T23:14:39;18.30;;;8.40;;
65658;SDS011;60181;53.258;6.932;2023-12-04T23:18:51;18.30;;;8.40;;
65658;SDS011;60181;53.258;6.932;2023-12-04T23:23:03;16.30;;;8.10;;
65658;SDS011;60181;53.258;6.932;2023-12-04T23:27:15;16.30;;;8.10;;
65658;SDS011;60181;53.258;6.932;2023-12-04T23:31:27;16.20;;;8.00;;
65658;SDS011;60181;53.258;6.932;2023-12-04T23:35:39;16.20;;;8.00;;
65658;SDS011;60181;53.258;6.932;2023-12-04T23:39:50;16.00;;;8.30;;
65658;SDS011;60181;53.258;6.932;2023-12-04T23:44:03;16.00;;;8.30;;
65658;SDS011;60181;53.258;6.932;2023-12-04T23:48:14;16.00;;;8.30;;
65658;SDS011;60181;53.258;6.932;2023-12-04T23:52:26;14.90;;;7.70;;
65658;SDS011;60181;53.258;6.932;2023-12-04T23:56:38;14.90;;;7.70;;
